VTBS Airport Information

Runway Information
Runway 01L Length 12139 ft width 197 ft
Elevation 0 ft Threshold 0 ft Heading 14
Runway 19R Length 12139 ft Width 197 ft
Elevation 0 ft Threshold 0 ft Heading 194
Runway 01R Length 13123 ft width 197 ft
Elevation 0 ft Threshold 0 ft Heading 14
Runway 19L Length 13123 ft Width 197 ft
Elevation 0 ft Threshold 0 ft Heading 194
Airport Frequencies
Type ATIS Name Frequency 127.8 MHZ
Type GROUND (EA Name Frequency 121.65 MHZ
Type GROUND (MA Name Frequency 121.75 MHZ
Type GROUND (WE Name Frequency 121.95 MHZ
Type TOWER (01L Name Frequency 119 MHZ
Type TOWER (01R Name Frequency 118.2 MHZ
Airport Navaids
Type VOR-DME Name Suvarnabhumi Intl Frequency 111400 KHZ
Airport Weather Information & NOTAM
ADDS - METARS form results

(2022 UTC 21 March 2019)
Data provider http://aviationweather.gov/metar/data/
 
METAR text: VTBS 212000Z 19010KT 8000 FEW017 28/26 Q1008 NOSIG
Conditions at: VTBS (CHON BURI/SATTAH, TH) observed 2000 UTC 21 March 2019
Temperature: 28.0°C (82°F)
Dewpoint: 26.0°C (79°F) [RH = 89%]
Pressure (altimeter): 29.76 inches Hg (1008.0 mb)
Winds: from the S (190 degrees) at 12 MPH (10 knots; 5.1 m/s)
Visibility: 5 miles ( 8 km)
Ceiling: at least 12,000 feet AGL
Clouds: few clouds at 1700 feet AGL
Weather: no significant weather observed at this time

METAR text: VTBS 211930Z 20010KT 8000 SCT015 28/26 Q1009 NOSIG
Conditions at: VTBS (CHON BURI/SATTAH, TH) observed 1930 UTC 21 March 2019
Temperature: 28.0°C (82°F)
Dewpoint: 26.0°C (79°F) [RH = 89%]
Pressure (altimeter): 29.79 inches Hg (1009.0 mb)
Winds: from the SSW (200 degrees) at 12 MPH (10 knots; 5.1 m/s)
Visibility: 5 miles ( 8 km)
Ceiling: at least 12,000 feet AGL
Clouds: scattered clouds at 1500 feet AGL
Weather: no significant weather observed at this time

Forecast for: VTBS (CHON BURI/SATTAH, TH)
Text: TAF VTBS 211700Z 2118/2224 20008KT 9999 FEW020
Forecast period: 1800 UTC 21 March 2019 to 0000 UTC 23 March 2019
Forecast type: FROM: standard forecast or significant change
Winds: from the SSW (200 degrees) at 9 MPH (8 knots; 4.1 m/s)
Visibility: 6 or more miles 10+ km)
Ceiling: at least 12,000 feet AGL
Clouds: few clouds at 2000 feet AGL
Weather: no significant weather forecast for this period